Terminal Aerodrome Forecast
Issued by NWS

Home | Current Version | Previous Version | Text Only | Print | Product List | Glossary On
Versions: 1 2 3 4 5 6 7 8 9 10 11 12 13 14 15 16 17 18 19 20 21
000
FTUS44 KHGX 201157 CCA
TAFLBX
TAF COR
KLBX 201157Z 2012/2112 VRB03KT 1/4SM FG OVC002
      TEMPO 2012/2015 4SM BR BKN008
     FM201500 13011KT P6SM FEW025 SCT080 SCT140
     FM210000 14008KT P6SM SCT070 BKN250
     FM210900 VRB03KT 5SM BR OVC015
      TEMPO 2109/2112 1/2SM FG=

USA.gov is the U.S. government's official web portal to all federal, state and local government web resources and services.